Martin City, Missouri
Current Conditions -  °F | °C
As of 7:53 AM on Friday 28 Nov 2014 (Local Time) from KOJC Reporting Station
Clear Clear  
Wind Chill: 27°   Ceiling: Unl
Heat Index: 36°   Visibility: 10mi
Dew Point: 26°   Wind: 14mph
Humidity: 67%   Direction: 200°SSW
Pressure: 30"   Gusts: NA
Location:  38.8519°N, 94.5455°W
Report Text: KOJC 281353Z 20012KT 10SM CLR 02/M03 A3000 RMK AO2 SLP169 T00221033
Loading
Personal Weather Stations






























Interactive Weather Map New forecast layout! Learn more

10-Day Weather Forecast

Advertisements
Track Severe Weather on mobile